sensor_id;sensor_type;location;lat;lon;timestamp;pressure;altitude;pressure_sealevel;temperature;humidity
11190;BME280;5651;50.926;4.718;2023-01-28T00:02:06;102737.03;;;3.80;100.00
11190;BME280;5651;50.926;4.718;2023-01-28T00:04:32;102735.09;;;3.76;100.00
11190;BME280;5651;50.926;4.718;2023-01-28T00:06:58;102729.94;;;3.76;100.00
11190;BME280;5651;50.926;4.718;2023-01-28T00:09:24;102731.63;;;3.76;100.00
11190;BME280;5651;50.926;4.718;2023-01-28T00:11:49;102721.16;;;3.73;100.00
11190;BME280;5651;50.926;4.718;2023-01-28T00:14:16;102726.38;;;3.74;100.00
11190;BME280;5651;50.926;4.718;2023-01-28T00:16:42;102725.44;;;3.72;100.00
11190;BME280;5651;50.926;4.718;2023-01-28T00:19:07;102731.38;;;3.71;100.00
11190;BME280;5651;50.926;4.718;2023-01-28T00:21:34;102721.06;;;3.71;100.00
11190;BME280;5651;50.926;4.718;2023-01-28T00:23:59;102722.91;;;3.74;100.00
11190;BME280;5651;50.926;4.718;2023-01-28T00:26:25;102721.22;;;3.74;100.00
11190;BME280;5651;50.926;4.718;2023-01-28T00:28:51;102720.34;;;3.74;100.00
11190;BME280;5651;50.926;4.718;2023-01-28T00:31:22;102722.84;;;3.72;100.00
11190;BME280;5651;50.926;4.718;2023-01-28T00:33:49;102721.16;;;3.73;100.00
11190;BME280;5651;50.926;4.718;2023-01-28T00:36:17;102716.25;;;3.77;100.00
11190;BME280;5651;50.926;4.718;2023-01-28T00:38:49;102716.97;;;3.75;100.00
11190;BME280;5651;50.926;4.718;2023-01-28T00:41:16;102714.22;;;3.72;100.00
11190;BME280;5651;50.926;4.718;2023-01-28T00:43:43;102721.06;;;3.71;100.00
11190;BME280;5651;50.926;4.718;2023-01-28T00:46:10;102723.13;;;3.62;100.00
11190;BME280;5651;50.926;4.718;2023-01-28T00:48:37;102723.06;;;3.60;100.00
11190;BME280;5651;50.926;4.718;2023-01-28T00:51:05;102728.84;;;3.56;100.00
11190;BME280;5651;50.926;4.718;2023-01-28T00:53:31;102729.91;;;3.60;100.00
11190;BME280;5651;50.926;4.718;2023-01-28T00:55:59;102736.03;;;3.62;100.00
11190;BME280;5651;50.926;4.718;2023-01-28T00:58:25;102733.44;;;3.62;100.00
11190;BME280;5651;50.926;4.718;2023-01-28T01:00:51;102733.63;;;3.65;100.00
11190;BME280;5651;50.926;4.718;2023-01-28T01:03:18;102725.72;;;3.62;100.00
11190;BME280;5651;50.926;4.718;2023-01-28T01:05:45;102726.44;;;3.59;100.00
11190;BME280;5651;50.926;4.718;2023-01-28T01:08:11;102727.97;;;3.56;100.00
11190;BME280;5651;50.926;4.718;2023-01-28T01:10:38;102728.69;;;3.53;100.00
11190;BME280;5651;50.926;4.718;2023-01-28T01:13:07;102734.72;;;3.54;100.00
11190;BME280;5651;50.926;4.718;2023-01-28T01:15:33;102741.56;;;3.53;100.00
11190;BME280;5651;50.926;4.718;2023-01-28T01:17:58;102741.66;;;3.55;100.00
11190;BME280;5651;50.926;4.718;2023-01-28T01:20:27;102747.78;;;3.57;100.00
11190;BME280;5651;50.926;4.718;2023-01-28T01:22:53;102751.09;;;3.54;100.00
11190;BME280;5651;50.926;4.718;2023-01-28T01:25:19;102751.16;;;3.56;100.00
11190;BME280;5651;50.926;4.718;2023-01-28T01:27:48;102748.50;;;3.54;100.00
11190;BME280;5651;50.926;4.718;2023-01-28T01:30:15;102751.09;;;3.54;100.00
11190;BME280;5651;50.926;4.718;2023-01-28T01:32:41;102750.97;;;3.53;100.00
11190;BME280;5651;50.926;4.718;2023-01-28T01:35:09;102750.19;;;3.54;100.00
11190;BME280;5651;50.926;4.718;2023-01-28T01:37:36;102747.53;;;3.52;100.00
11190;BME280;5651;50.926;4.718;2023-01-28T01:40:02;102751.78;;;3.52;100.00
11190;BME280;5651;50.926;4.718;2023-01-28T01:42:31;102754.34;;;3.52;100.00
11190;BME280;5651;50.926;4.718;2023-01-28T01:45:01;102749.38;;;3.55;100.00
11190;BME280;5651;50.926;4.718;2023-01-28T01:52:56;102746.81;;;3.55;100.00
11190;BME280;5651;50.926;4.718;2023-01-28T01:55:26;102750.19;;;3.54;100.00
11190;BME280;5651;50.926;4.718;2023-01-28T01:57:55;102745.81;;;3.53;100.00
11190;BME280;5651;50.926;4.718;2023-01-28T02:00:22;102746.56;;;3.50;100.00
11190;BME280;5651;50.926;4.718;2023-01-28T02:02:49;102747.09;;;3.44;100.00
11190;BME280;5651;50.926;4.718;2023-01-28T02:05:18;102748.00;;;3.45;100.00
11190;BME280;5651;50.926;4.718;2023-01-28T02:07:45;102751.56;;;3.47;100.00
11190;BME280;5651;50.926;4.718;2023-01-28T02:10:12;102742.19;;;3.49;100.00
11190;BME280;5651;50.926;4.718;2023-01-28T02:12:42;102752.44;;;3.47;100.00
11190;BME280;5651;50.926;4.718;2023-01-28T02:15:12;102753.94;;;3.44;100.00
11190;BME280;5651;50.926;4.718;2023-01-28T02:17:39;102745.41;;;3.45;100.00
11190;BME280;5651;50.926;4.718;2023-01-28T02:20:08;102747.00;;;3.43;100.00
11190;BME280;5651;50.926;4.718;2023-01-28T02:28:53;102746.22;;;3.44;100.00
11190;BME280;5651;50.926;4.718;2023-01-28T02:31:45;102750.50;;;3.43;100.00
11190;BME280;5651;50.926;4.718;2023-01-28T02:37:08;102744.44;;;3.43;100.00
11190;BME280;5651;50.926;4.718;2023-01-28T02:42:28;102746.69;;;3.37;100.00
11190;BME280;5651;50.926;4.718;2023-01-28T02:44:54;102749.78;;;3.31;100.00
11190;BME280;5651;50.926;4.718;2023-01-28T02:47:20;102754.16;;;3.32;100.00
11190;BME280;5651;50.926;4.718;2023-01-28T02:50:11;102748.47;;;3.38;100.00
11190;BME280;5651;50.926;4.718;2023-01-28T02:58:50;102741.59;;;3.38;100.00
11190;BME280;5651;50.926;4.718;2023-01-28T03:01:29;102736.44;;;3.38;100.00
11190;BME280;5651;50.926;4.718;2023-01-28T03:04:00;102750.84;;;3.35;100.00
11190;BME280;5651;50.926;4.718;2023-01-28T03:06:49;102749.97;;;3.34;100.00
11190;BME280;5651;50.926;4.718;2023-01-28T03:09:18;102754.34;;;3.35;100.00
11190;BME280;5651;50.926;4.718;2023-01-28T03:12:11;102759.94;;;3.28;100.00
11190;BME280;5651;50.926;4.718;2023-01-28T03:17:54;102773.63;;;3.27;100.00
11190;BME280;5651;50.926;4.718;2023-01-28T03:24:04;102778.13;;;3.31;100.00
11190;BME280;5651;50.926;4.718;2023-01-28T03:27:11;102776.81;;;3.23;100.00
11190;BME280;5651;50.926;4.718;2023-01-28T03:30:06;102780.03;;;3.19;100.00
11190;BME280;5651;50.926;4.718;2023-01-28T03:32:52;102789.97;;;3.12;100.00
11190;BME280;5651;50.926;4.718;2023-01-28T03:35:38;102786.34;;;3.09;100.00
11190;BME280;5651;50.926;4.718;2023-01-28T03:38:23;102794.50;;;3.16;100.00
11190;BME280;5651;50.926;4.718;2023-01-28T03:40:57;102795.13;;;3.12;100.00
11190;BME280;5651;50.926;4.718;2023-01-28T03:43:28;102785.16;;;3.04;100.00
11190;BME280;5651;50.926;4.718;2023-01-28T03:45:55;102787.66;;;3.02;100.00
11190;BME280;5651;50.926;4.718;2023-01-28T03:48:23;102798.75;;;3.01;100.00
11190;BME280;5651;50.926;4.718;2023-01-28T03:50:49;102795.03;;;2.96;100.00
11190;BME280;5651;50.926;4.718;2023-01-28T03:53:16;102791.75;;;2.98;100.00
11190;BME280;5651;50.926;4.718;2023-01-28T03:55:43;102799.53;;;3.00;100.00
11190;BME280;5651;50.926;4.718;2023-01-28T03:58:10;102794.41;;;3.00;100.00
11190;BME280;5651;50.926;4.718;2023-01-28T04:00:36;102791.94;;;3.01;100.00
11190;BME280;5651;50.926;4.718;2023-01-28T04:03:14;102792.09;;;3.05;100.00
11190;BME280;5651;50.926;4.718;2023-01-28T04:06:01;102791.22;;;3.04;100.00
11190;BME280;5651;50.926;4.718;2023-01-28T04:08:27;102792.88;;;3.04;100.00
11190;BME280;5651;50.926;4.718;2023-01-28T04:10:53;102794.75;;;3.06;100.00
11190;BME280;5651;50.926;4.718;2023-01-28T04:13:19;102788.81;;;3.07;100.00
11190;BME280;5651;50.926;4.718;2023-01-28T04:15:45;102785.34;;;3.07;100.00
11190;BME280;5651;50.926;4.718;2023-01-28T04:18:11;102785.16;;;3.04;100.00
11190;BME280;5651;50.926;4.718;2023-01-28T04:20:38;102791.94;;;3.01;100.00
11190;BME280;5651;50.926;4.718;2023-01-28T04:23:05;102800.91;;;2.93;100.00
11190;BME280;5651;50.926;4.718;2023-01-28T04:25:31;102796.00;;;2.98;100.00
11190;BME280;5651;50.926;4.718;2023-01-28T04:27:57;102795.91;;;2.96;100.00
11190;BME280;5651;50.926;4.718;2023-01-28T04:30:22;102806.75;;;2.91;100.00
11190;BME280;5651;50.926;4.718;2023-01-28T04:32:48;102810.47;;;2.96;100.00
11190;BME280;5651;50.926;4.718;2023-01-28T04:35:17;102811.97;;;2.92;100.00
11190;BME280;5651;50.926;4.718;2023-01-28T04:37:44;102813.94;;;2.96;100.00
11190;BME280;5651;50.926;4.718;2023-01-28T04:40:11;102809.69;;;2.97;100.00
11190;BME280;5651;50.926;4.718;2023-01-28T04:42:37;102813.06;;;2.96;100.00
11190;BME280;5651;50.926;4.718;2023-01-28T04:45:03;102811.47;;;2.98;100.00
11190;BME280;5651;50.926;4.718;2023-01-28T04:47:29;102803.63;;;2.96;100.00
11190;BME280;5651;50.926;4.718;2023-01-28T04:49:55;102809.75;;;2.98;100.00
11190;BME280;5651;50.926;4.718;2023-01-28T04:52:21;102807.19;;;2.98;100.00
11190;BME280;5651;50.926;4.718;2023-01-28T04:54:46;102808.88;;;2.98;100.00
11190;BME280;5651;50.926;4.718;2023-01-28T04:57:12;102797.69;;;2.97;100.00
11190;BME280;5651;50.926;4.718;2023-01-28T04:59:38;102808.06;;;2.99;100.00
11190;BME280;5651;50.926;4.718;2023-01-28T05:02:04;102812.34;;;2.98;100.00
11190;BME280;5651;50.926;4.718;2023-01-28T05:04:29;102814.63;;;2.94;100.00
11190;BME280;5651;50.926;4.718;2023-01-28T05:06:55;102824.16;;;2.95;100.00
11190;BME280;5651;50.926;4.718;2023-01-28T05:09:22;102811.28;;;2.95;100.00
11190;BME280;5651;50.926;4.718;2023-01-28T05:11:48;102815.53;;;2.94;100.00
11190;BME280;5651;50.926;4.718;2023-01-28T05:14:14;102814.63;;;2.94;100.00
11190;BME280;5651;50.926;4.718;2023-01-28T05:16:40;102810.28;;;2.93;100.00
11190;BME280;5651;50.926;4.718;2023-01-28T05:19:05;102814.63;;;2.94;100.00
11190;BME280;5651;50.926;4.718;2023-01-28T05:21:31;102814.56;;;2.92;100.00
11190;BME280;5651;50.926;4.718;2023-01-28T05:23:57;102813.56;;;2.90;100.00
11190;BME280;5651;50.926;4.718;2023-01-28T05:26:23;102807.63;;;2.91;100.00
11190;BME280;5651;50.926;4.718;2023-01-28T05:28:48;102815.53;;;2.94;100.00
11190;BME280;5651;50.926;4.718;2023-01-28T05:31:15;102815.34;;;2.91;100.00
11190;BME280;5651;50.926;4.718;2023-01-28T05:33:41;102817.84;;;2.90;100.00
11190;BME280;5651;50.926;4.718;2023-01-28T05:36:07;102807.34;;;2.87;100.00
11190;BME280;5651;50.926;4.718;2023-01-28T05:38:33;102820.22;;;2.87;100.00
11190;BME280;5651;50.926;4.718;2023-01-28T05:40:59;102815.50;;;2.79;100.00
11190;BME280;5651;50.926;4.718;2023-01-28T05:43:24;102803.28;;;2.75;100.00
11190;BME280;5651;50.926;4.718;2023-01-28T05:45:50;102810.16;;;2.76;100.00
11190;BME280;5651;50.926;4.718;2023-01-28T05:48:16;102811.06;;;2.77;100.00
11190;BME280;5651;50.926;4.718;2023-01-28T05:50:41;102813.56;;;2.75;100.00
11190;BME280;5651;50.926;4.718;2023-01-28T05:53:07;102810.00;;;2.73;100.00
11190;BME280;5651;50.926;4.718;2023-01-28T05:55:33;102812.59;;;2.73;100.00
11190;BME280;5651;50.926;4.718;2023-01-28T05:57:59;102811.78;;;2.74;100.00
11190;BME280;5651;50.926;4.718;2023-01-28T06:00:25;102816.03;;;2.74;100.00
11190;BME280;5651;50.926;4.718;2023-01-28T06:02:51;102816.03;;;2.74;100.00
11190;BME280;5651;50.926;4.718;2023-01-28T06:05:17;102820.09;;;2.70;100.00
11190;BME280;5651;50.926;4.718;2023-01-28T06:07:46;102820.09;;;2.70;100.00
11190;BME280;5651;50.926;4.718;2023-01-28T06:10:13;102831.91;;;2.66;100.00
11190;BME280;5651;50.926;4.718;2023-01-28T06:12:39;102849.75;;;2.63;100.00
11190;BME280;5651;50.926;4.718;2023-01-28T06:15:05;102840.25;;;2.62;100.00
11190;BME280;5651;50.926;4.718;2023-01-28T06:17:31;102838.09;;;2.55;100.00
11190;BME280;5651;50.926;4.718;2023-01-28T06:19:57;102840.84;;;2.58;100.00
11190;BME280;5651;50.926;4.718;2023-01-28T06:22:23;102841.19;;;2.49;100.00
11190;BME280;5651;50.926;4.718;2023-01-28T06:24:48;102846.00;;;2.58;100.00
11190;BME280;5651;50.926;4.718;2023-01-28T06:27:14;102844.03;;;2.54;100.00
11190;BME280;5651;50.926;4.718;2023-01-28T06:29:40;102851.94;;;2.57;100.00
11190;BME280;5651;50.926;4.718;2023-01-28T06:32:06;102850.06;;;2.54;100.00
11190;BME280;5651;50.926;4.718;2023-01-28T06:34:31;102851.13;;;2.58;100.00
11190;BME280;5651;50.926;4.718;2023-01-28T06:36:57;102846.63;;;2.54;100.00
11190;BME280;5651;50.926;4.718;2023-01-28T06:39:23;102859.56;;;2.56;100.00
11190;BME280;5651;50.926;4.718;2023-01-28T06:41:51;102862.41;;;2.60;100.00
11190;BME280;5651;50.926;4.718;2023-01-28T06:44:17;102858.78;;;2.57;100.00
11190;BME280;5651;50.926;4.718;2023-01-28T06:46:42;102859.28;;;2.51;100.00
11190;BME280;5651;50.926;4.718;2023-01-28T06:49:08;102866.03;;;2.49;100.00
11190;BME280;5651;50.926;4.718;2023-01-28T06:51:34;102864.34;;;2.49;100.00
11190;BME280;5651;50.926;4.718;2023-01-28T06:53:59;102854.50;;;2.57;100.00
11190;BME280;5651;50.926;4.718;2023-01-28T06:56:25;102861.25;;;2.55;100.00
11190;BME280;5651;50.926;4.718;2023-01-28T06:58:51;102866.03;;;2.49;100.00
11190;BME280;5651;50.926;4.718;2023-01-28T07:01:16;102860.78;;;2.47;100.00
11190;BME280;5651;50.926;4.718;2023-01-28T07:03:42;102866.81;;;2.48;100.00
11190;BME280;5651;50.926;4.718;2023-01-28T07:06:08;102863.19;;;2.44;100.00
11190;BME280;5651;50.926;4.718;2023-01-28T07:08:34;102863.19;;;2.44;100.00
11190;BME280;5651;50.926;4.718;2023-01-28T07:11:02;102858.13;;;2.46;100.00
11190;BME280;5651;50.926;4.718;2023-01-28T07:13:29;102871.84;;;2.46;100.00
11190;BME280;5651;50.926;4.718;2023-01-28T07:15:54;102873.63;;;2.47;100.00
11190;BME280;5651;50.926;4.718;2023-01-28T07:18:20;102868.59;;;2.49;100.00
11190;BME280;5651;50.926;4.718;2023-01-28T07:20:46;102864.75;;;2.42;100.00
11190;BME280;5651;50.926;4.718;2023-01-28T07:23:12;102867.25;;;2.41;100.00
11190;BME280;5651;50.926;4.718;2023-01-28T07:25:38;102868.81;;;2.38;100.00
11190;BME280;5651;50.926;4.718;2023-01-28T07:28:04;102872.41;;;2.27;100.00
11190;BME280;5651;50.926;4.718;2023-01-28T07:30:30;102873.69;;;2.34;100.00
11190;BME280;5651;50.926;4.718;2023-01-28T07:32:58;102874.47;;;2.33;100.00
11190;BME280;5651;50.926;4.718;2023-01-28T07:35:24;102871.91;;;2.33;100.00
11190;BME280;5651;50.926;4.718;2023-01-28T07:38:00;102861.91;;;2.37;100.00
11190;BME280;5651;50.926;4.718;2023-01-28T07:40:26;102866.59;;;2.30;100.00
11190;BME280;5651;50.926;4.718;2023-01-28T07:42:52;102865.09;;;2.33;100.00
11190;BME280;5651;50.926;4.718;2023-01-28T07:45:19;102870.03;;;2.30;100.00
11190;BME280;5651;50.926;4.718;2023-01-28T07:47:59;102881.47;;;2.35;100.00
11190;BME280;5651;50.926;4.718;2023-01-28T07:50:27;102881.41;;;2.34;100.00
11190;BME280;5651;50.926;4.718;2023-01-28T07:52:54;102888.25;;;2.33;100.00
11190;BME280;5651;50.926;4.718;2023-01-28T07:55:20;102889.03;;;2.32;100.00
11190;BME280;5651;50.926;4.718;2023-01-28T07:57:54;102895.75;;;2.30;100.00
11190;BME280;5651;50.926;4.718;2023-01-28T08:00:21;102887.81;;;2.27;100.00
11190;BME280;5651;50.926;4.718;2023-01-28T08:02:48;102898.41;;;2.32;100.00
11190;BME280;5651;50.926;4.718;2023-01-28T08:05:18;102891.47;;;2.31;100.00
11190;BME280;5651;50.926;4.718;2023-01-28T08:07:45;102892.38;;;2.31;100.00
11190;BME280;5651;50.926;4.718;2023-01-28T08:10:13;102890.69;;;2.32;100.00
11190;BME280;5651;50.926;4.718;2023-01-28T08:12:39;102895.06;;;2.33;100.00
11190;BME280;5651;50.926;4.718;2023-01-28T08:15:06;102896.03;;;2.35;100.00
11190;BME280;5651;50.926;4.718;2023-01-28T08:17:32;102913.97;;;2.33;100.00
11190;BME280;5651;50.926;4.718;2023-01-28T08:19:58;102901.28;;;2.36;100.00
11190;BME280;5651;50.926;4.718;2023-01-28T08:22:25;102915.13;;;2.38;100.00
11190;BME280;5651;50.926;4.718;2023-01-28T08:24:50;102909.91;;;2.37;100.00
11190;BME280;5651;50.926;4.718;2023-01-28T08:27:16;102907.81;;;2.31;100.00
11190;BME280;5651;50.926;4.718;2023-01-28T08:29:42;102913.06;;;2.33;100.00
11190;BME280;5651;50.926;4.718;2023-01-28T08:32:09;102913.16;;;2.34;99.98
11190;BME280;5651;50.926;4.718;2023-01-28T08:34:35;102910.00;;;2.38;100.00
11190;BME280;5651;50.926;4.718;2023-01-28T08:37:00;102909.38;;;2.43;100.00
11190;BME280;5651;50.926;4.718;2023-01-28T08:39:26;102907.09;;;2.47;100.00
11190;BME280;5651;50.926;4.718;2023-01-28T08:41:52;102925.09;;;2.47;100.00
11190;BME280;5651;50.926;4.718;2023-01-28T08:44:18;102931.03;;;2.46;100.00
11190;BME280;5651;50.926;4.718;2023-01-28T08:46:43;102940.38;;;2.44;99.77
11190;BME280;5651;50.926;4.718;2023-01-28T08:49:09;102936.19;;;2.46;100.00
11190;BME280;5651;50.926;4.718;2023-01-28T08:51:35;102937.97;;;2.47;100.00
11190;BME280;5651;50.926;4.718;2023-01-28T08:54:00;102945.97;;;2.52;100.00
11190;BME280;5651;50.926;4.718;2023-01-28T08:56:27;102945.69;;;2.47;100.00
11190;BME280;5651;50.926;4.718;2023-01-28T08:58:52;102956.19;;;2.50;99.82
11190;BME280;5651;50.926;4.718;2023-01-28T09:01:18;102961.13;;;2.47;99.64
11190;BME280;5651;50.926;4.718;2023-01-28T09:03:44;102960.63;;;2.53;99.96
11190;BME280;5651;50.926;4.718;2023-01-28T09:06:10;102959.94;;;2.56;100.00
11190;BME280;5651;50.926;4.718;2023-01-28T09:08:35;102957.56;;;2.59;100.00
11190;BME280;5651;50.926;4.718;2023-01-28T09:11:01;102964.50;;;2.60;100.00
11190;BME280;5651;50.926;4.718;2023-01-28T09:13:27;102967.66;;;2.56;100.00
11190;BME280;5651;50.926;4.718;2023-01-28T09:15:53;102965.28;;;2.59;99.63
11190;BME280;5651;50.926;4.718;2023-01-28T09:18:19;102952.00;;;2.66;100.00
11190;BME280;5651;50.926;4.718;2023-01-28T09:20:44;102960.31;;;2.62;99.36
11190;BME280;5651;50.926;4.718;2023-01-28T09:23:10;102967.16;;;2.61;99.79
11190;BME280;5651;50.926;4.718;2023-01-28T09:25:36;102967.44;;;2.66;100.00
11190;BME280;5651;50.926;4.718;2023-01-28T09:28:03;102962.88;;;2.62;99.60
11190;BME280;5651;50.926;4.718;2023-01-28T09:30:29;102966.34;;;2.62;99.40
11190;BME280;5651;50.926;4.718;2023-01-28T09:32:55;102971.81;;;2.67;100.00
11190;BME280;5651;50.926;4.718;2023-01-28T09:35:23;102975.66;;;2.60;97.93
11190;BME280;5651;50.926;4.718;2023-01-28T09:37:49;102970.50;;;2.60;98.59
11190;BME280;5651;50.926;4.718;2023-01-28T09:40:19;102982.09;;;2.67;99.09
11190;BME280;5651;50.926;4.718;2023-01-28T09:46:12;102982.47;;;2.73;99.10
11190;BME280;5651;50.926;4.718;2023-01-28T09:48:48;102976.53;;;2.74;98.44
11190;BME280;5651;50.926;4.718;2023-01-28T09:51:42;102981.28;;;2.81;99.33
11190;BME280;5651;50.926;4.718;2023-01-28T09:57:01;102977.28;;;2.87;98.75
11190;BME280;5651;50.926;4.718;2023-01-28T09:59:33;102977.66;;;2.93;99.57
11190;BME280;5651;50.926;4.718;2023-01-28T10:02:18;102982.00;;;2.94;99.30
11190;BME280;5651;50.926;4.718;2023-01-28T10:04:58;102981.63;;;2.88;97.21
11190;BME280;5651;50.926;4.718;2023-01-28T10:10:14;102984.16;;;3.01;98.69
11190;BME280;5651;50.926;4.718;2023-01-28T10:16:02;103000.75;;;2.91;95.70
11190;BME280;5651;50.926;4.718;2023-01-28T10:18:09;102992.59;;;2.98;96.78
11190;BME280;5651;50.926;4.718;2023-01-28T10:20:42;102990.59;;;3.08;97.01
11190;BME280;5651;50.926;4.718;2023-01-28T10:23:25;102992.09;;;3.04;96.61
11190;BME280;5651;50.926;4.718;2023-01-28T10:25:58;102996.53;;;3.07;96.89
11190;BME280;5651;50.926;4.718;2023-01-28T10:28:27;102983.25;;;3.14;96.91
11190;BME280;5651;50.926;4.718;2023-01-28T10:30:53;102991.06;;;3.15;96.49
11190;BME280;5651;50.926;4.718;2023-01-28T10:33:27;102992.25;;;3.07;94.96
11190;BME280;5651;50.926;4.718;2023-01-28T10:35:55;102989.94;;;2.97;93.80
11190;BME280;5651;50.926;4.718;2023-01-28T10:38:23;102997.41;;;3.07;95.92
11190;BME280;5651;50.926;4.718;2023-01-28T10:40:50;103002.41;;;3.04;94.53
11190;BME280;5651;50.926;4.718;2023-01-28T10:43:19;102998.97;;;3.19;95.91
11190;BME280;5651;50.926;4.718;2023-01-28T10:45:58;103008.13;;;3.13;94.13
11190;BME280;5651;50.926;4.718;2023-01-28T10:48:32;102994.84;;;3.07;94.34
11190;BME280;5651;50.926;4.718;2023-01-28T10:51:00;103007.34;;;3.01;93.61
11190;BME280;5651;50.926;4.718;2023-01-28T10:53:44;103007.63;;;3.06;93.17
11190;BME280;5651;50.926;4.718;2023-01-28T10:56:16;102997.41;;;3.07;93.30
11190;BME280;5651;50.926;4.718;2023-01-28T10:58:53;102998.41;;;3.09;93.95
11190;BME280;5651;50.926;4.718;2023-01-28T11:01:23;103001.56;;;3.19;94.80
11190;BME280;5651;50.926;4.718;2023-01-28T11:03:57;103001.28;;;3.14;94.12
11190;BME280;5651;50.926;4.718;2023-01-28T11:06:25;103005.63;;;3.15;93.85
11190;BME280;5651;50.926;4.718;2023-01-28T11:08:51;103003.13;;;3.16;93.08
11190;BME280;5651;50.926;4.718;2023-01-28T11:11:23;102996.13;;;3.14;92.98
11190;BME280;5651;50.926;4.718;2023-01-28T11:13:52;102999.78;;;3.32;95.63
11190;BME280;5651;50.926;4.718;2023-01-28T11:16:19;103005.00;;;3.19;92.76
11190;BME280;5651;50.926;4.718;2023-01-28T11:18:53;103000.41;;;3.13;93.42
11190;BME280;5651;50.926;4.718;2023-01-28T11:21:28;102989.38;;;3.16;93.42
11190;BME280;5651;50.926;4.718;2023-01-28T11:24:04;102999.56;;;3.14;92.96
11190;BME280;5651;50.926;4.718;2023-01-28T11:26:34;103006.69;;;3.19;93.05
11190;BME280;5651;50.926;4.718;2023-01-28T11:29:01;102996.25;;;3.30;94.42
11190;BME280;5651;50.926;4.718;2023-01-28T11:31:27;102997.13;;;3.31;93.51
11190;BME280;5651;50.926;4.718;2023-01-28T11:33:55;103001.22;;;3.27;92.66
11190;BME280;5651;50.926;4.718;2023-01-28T11:36:30;102998.34;;;3.23;92.04
11190;BME280;5651;50.926;4.718;2023-01-28T11:39:02;103001.50;;;3.32;91.61
11190;BME280;5651;50.926;4.718;2023-01-28T11:41:37;102990.66;;;3.38;92.83
11190;BME280;5651;50.926;4.718;2023-01-28T11:44:15;102980.53;;;3.41;93.02
11190;BME280;5651;50.926;4.718;2023-01-28T11:58:05;102976.72;;;3.34;91.23
11190;BME280;5651;50.926;4.718;2023-01-28T12:08:59;102950.50;;;3.41;91.94
11190;BME280;5651;50.926;4.718;2023-01-28T12:11:46;102944.91;;;3.48;92.35
11190;BME280;5651;50.926;4.718;2023-01-28T12:17:29;102933.53;;;3.60;92.67
11190;BME280;5651;50.926;4.718;2023-01-28T12:39:47;102888.19;;;3.78;90.47
11190;BME280;5651;50.926;4.718;2023-01-28T12:42:53;102871.09;;;3.95;92.39
11190;BME280;5651;50.926;4.718;2023-01-28T12:45:29;102866.66;;;3.93;90.69
11190;BME280;5651;50.926;4.718;2023-01-28T12:48:07;102857.25;;;4.10;92.58
11190;BME280;5651;50.926;4.718;2023-01-28T12:51:10;102849.78;;;4.31;91.83
11190;BME280;5651;50.926;4.718;2023-01-28T12:56:32;102872.28;;;5.00;93.44
11190;BME280;5651;50.926;4.718;2023-01-28T12:59:09;102871.22;;;5.13;91.65
11190;BME280;5651;50.926;4.718;2023-01-28T13:01:50;102865.22;;;4.96;89.47
11190;BME280;5651;50.926;4.718;2023-01-28T13:10:21;102860.44;;;6.48;90.54
11190;BME280;5651;50.926;4.718;2023-01-28T13:12:49;102866.97;;;6.40;83.46
11190;BME280;5651;50.926;4.718;2023-01-28T13:15:17;102875.72;;;7.22;85.31
11190;BME280;5651;50.926;4.718;2023-01-28T13:20:48;102870.84;;;7.29;82.30
11190;BME280;5651;50.926;4.718;2023-01-28T13:23:23;102887.78;;;7.62;81.78
11190;BME280;5651;50.926;4.718;2023-01-28T13:25:52;102891.28;;;7.22;78.33
11190;BME280;5651;50.926;4.718;2023-01-28T13:28:31;102893.00;;;7.64;78.57
11190;BME280;5651;50.926;4.718;2023-01-28T13:31:11;102896.81;;;7.72;77.43
11190;BME280;5651;50.926;4.718;2023-01-28T13:36:44;102892.31;;;9.57;81.45
11190;BME280;5651;50.926;4.718;2023-01-28T13:41:47;102902.72;;;10.12;75.29
11190;BME280;5651;50.926;4.718;2023-01-28T13:44:31;102899.00;;;10.34;72.83
11190;BME280;5651;50.926;4.718;2023-01-28T13:47:11;102897.97;;;11.22;77.05
11190;BME280;5651;50.926;4.718;2023-01-28T13:49:43;102886.91;;;11.31;71.23
11190;BME280;5651;50.926;4.718;2023-01-28T13:54:39;102892.66;;;11.17;71.80
11190;BME280;5651;50.926;4.718;2023-01-28T14:05:25;102892.97;;;9.51;66.98
11190;BME280;5651;50.926;4.718;2023-01-28T14:13:19;102895.63;;;8.30;67.53
11190;BME280;5651;50.926;4.718;2023-01-28T14:15:55;102884.03;;;7.76;68.08
11190;BME280;5651;50.926;4.718;2023-01-28T14:18:26;102871.75;;;7.51;68.05
11190;BME280;5651;50.926;4.718;2023-01-28T14:20:55;102873.63;;;7.34;69.01
11190;BME280;5651;50.926;4.718;2023-01-28T14:23:25;102877.38;;;7.41;70.03
11190;BME280;5651;50.926;4.718;2023-01-28T14:31:35;102879.78;;;7.36;70.20
11190;BME280;5651;50.926;4.718;2023-01-28T14:34:21;102871.25;;;7.39;71.16
11190;BME280;5651;50.926;4.718;2023-01-28T14:36:48;102865.47;;;8.11;73.91
11190;BME280;5651;50.926;4.718;2023-01-28T14:39:19;102849.94;;;8.84;73.39
11190;BME280;5651;50.926;4.718;2023-01-28T14:41:48;102850.06;;;8.63;68.82
11190;BME280;5651;50.926;4.718;2023-01-28T14:44:27;102849.22;;;8.17;68.01
11190;BME280;5651;50.926;4.718;2023-01-28T14:47:00;102838.69;;;9.09;69.21
11190;BME280;5651;50.926;4.718;2023-01-28T14:49:41;102856.75;;;9.58;68.35
11190;BME280;5651;50.926;4.718;2023-01-28T14:58:05;102861.28;;;10.21;64.27
11190;BME280;5651;50.926;4.718;2023-01-28T15:00:34;102868.41;;;9.98;62.58
11190;BME280;5651;50.926;4.718;2023-01-28T15:03:08;102876.53;;;10.07;64.20
11190;BME280;5651;50.926;4.718;2023-01-28T15:05:34;102869.38;;;9.73;61.63
11190;BME280;5651;50.926;4.718;2023-01-28T15:07:59;102857.00;;;9.65;69.02
11190;BME280;5651;50.926;4.718;2023-01-28T15:10:26;102860.56;;;9.16;61.88
11190;BME280;5651;50.926;4.718;2023-01-28T15:15:32;102884.22;;;8.04;61.66
11190;BME280;5651;50.926;4.718;2023-01-28T15:18:06;102894.09;;;7.91;63.06
11190;BME280;5651;50.926;4.718;2023-01-28T15:20:36;102895.41;;;7.80;63.83
11190;BME280;5651;50.926;4.718;2023-01-28T15:23:05;102894.66;;;7.61;63.61
11190;BME280;5651;50.926;4.718;2023-01-28T15:25:32;102900.91;;;7.24;64.11
11190;BME280;5651;50.926;4.718;2023-01-28T15:27:59;102893.72;;;6.97;66.10